createdAt,value
2019-04-05T00:00:41.689Z,10.60
2019-04-05T00:01:14.735Z,10.70
2019-04-05T00:01:47.295Z,10.70
2019-04-05T00:02:19.999Z,10.70
2019-04-05T00:02:52.987Z,10.70
2019-04-05T00:03:25.518Z,10.70
2019-04-05T00:03:58.494Z,10.70
2019-04-05T00:04:31.441Z,10.70
2019-04-05T00:05:04.702Z,10.70
2019-04-05T00:05:37.690Z,10.70
2019-04-05T00:06:10.238Z,10.70
2019-04-05T00:06:43.118Z,10.70
2019-04-05T00:07:15.679Z,10.70
2019-04-05T00:07:48.221Z,10.70
2019-04-05T00:08:21.057Z,10.60
2019-04-05T00:08:53.765Z,10.70
2019-04-05T00:09:26.570Z,10.60
2019-04-05T00:09:59.722Z,10.60
2019-04-05T00:10:32.598Z,10.60
2019-04-05T00:11:05.568Z,10.60
2019-04-05T00:11:38.127Z,10.60
2019-04-05T00:12:10.662Z,10.50
2019-04-05T00:12:43.216Z,10.50
2019-04-05T00:13:16.089Z,10.60
2019-04-05T00:13:48.627Z,10.60
2019-04-05T00:14:21.165Z,10.60
2019-04-05T00:14:53.754Z,10.60
2019-04-05T00:15:26.314Z,10.60
2019-04-05T00:15:59.029Z,10.50
2019-04-05T00:16:31.927Z,10.50
2019-04-05T00:17:04.573Z,10.50
2019-04-05T00:17:37.146Z,10.50
2019-04-05T00:18:09.684Z,10.50
2019-04-05T00:18:42.586Z,10.50
2019-04-05T00:19:15.446Z,10.50
2019-04-05T00:19:48.002Z,10.50
2019-04-05T00:20:20.614Z,10.50
2019-04-05T00:20:53.167Z,10.50
2019-04-05T00:21:26.027Z,10.50
2019-04-05T00:21:58.882Z,10.50
2019-04-05T00:22:31.434Z,10.50
2019-04-05T00:23:04.082Z,10.40
2019-04-05T00:23:36.621Z,10.50
2019-04-05T00:24:10.371Z,10.50
2019-04-05T00:24:42.902Z,10.50
2019-04-05T00:25:15.537Z,10.50
2019-04-05T00:25:48.035Z,10.50
2019-04-05T00:26:20.589Z,10.50
2019-04-05T00:26:53.542Z,10.50
2019-04-05T00:27:26.097Z,10.50
2019-04-05T00:27:58.654Z,10.50
2019-04-05T00:28:31.195Z,10.50
2019-04-05T00:29:03.843Z,10.50
2019-04-05T00:29:36.399Z,10.50
2019-04-05T00:30:09.070Z,10.40
2019-04-05T00:30:41.623Z,10.50
2019-04-05T00:31:14.195Z,10.40
2019-04-05T00:31:46.751Z,10.40
2019-04-05T00:32:19.695Z,10.40
2019-04-05T00:32:52.242Z,10.40
2019-04-05T00:33:25.485Z,10.40
2019-04-05T00:33:58.021Z,10.40
2019-04-05T00:34:30.569Z,10.30
2019-04-05T00:35:03.836Z,10.40
2019-04-05T00:35:36.395Z,10.30
2019-04-05T00:36:09.556Z,10.30
2019-04-05T00:36:42.142Z,10.30
2019-04-05T00:37:14.690Z,10.30
2019-04-05T00:37:47.635Z,10.30
2019-04-05T00:38:20.501Z,10.30
2019-04-05T00:38:53.042Z,10.30
2019-04-05T00:39:25.583Z,10.30
2019-04-05T00:39:58.136Z,10.30
2019-04-05T00:40:30.680Z,10.30
2019-04-05T00:41:03.675Z,10.30
2019-04-05T00:41:37.378Z,10.20
2019-04-05T00:42:10.235Z,10.20
2019-04-05T00:42:42.799Z,10.20
2019-04-05T00:43:15.353Z,10.20
2019-04-05T00:43:48.278Z,10.20
2019-04-05T00:44:21.455Z,10.20
2019-04-05T00:44:53.995Z,10.20
2019-04-05T00:45:28.262Z,10.20
2019-04-05T00:46:01.195Z,10.20
2019-04-05T00:46:33.747Z,10.20
2019-04-05T00:47:06.305Z,10.20
2019-04-05T00:47:39.186Z,10.20
2019-04-05T00:48:12.111Z,10.20
2019-04-05T00:48:44.657Z,10.20
2019-04-05T00:49:17.221Z,10.20
2019-04-05T00:49:49.774Z,10.20
2019-04-05T00:50:22.317Z,10.20
2019-04-05T00:50:55.261Z,10.20
2019-04-05T00:51:28.162Z,10.20
2019-04-05T00:52:00.818Z,10.20
2019-04-05T00:52:33.370Z,10.10
2019-04-05T00:53:06.294Z,10.20
2019-04-05T00:53:38.830Z,10.10
2019-04-05T00:54:11.374Z,10.20
2019-04-05T00:54:44.658Z,10.20
2019-04-05T00:55:17.215Z,10.10
2019-04-05T00:55:50.058Z,10.10
2019-04-05T00:56:22.611Z,10.10
2019-04-05T00:56:55.154Z,10.10
2019-04-05T00:57:27.989Z,10.10
2019-04-05T00:58:00.873Z,10.10
2019-04-05T00:58:33.820Z,10.10
2019-04-05T00:59:06.717Z,10.10
2019-04-05T00:59:39.800Z,10.10
2019-04-05T01:00:12.919Z,10.00
2019-04-05T01:00:45.569Z,10.10
2019-04-05T01:01:18.108Z,10.10
2019-04-05T01:01:50.767Z,10.10
2019-04-05T01:02:23.315Z,10.00
2019-04-05T01:02:56.231Z,10.10
2019-04-05T01:03:29.150Z,10.10
2019-04-05T01:04:02.103Z,10.00
2019-04-05T01:04:35.102Z,10.00
2019-04-05T01:05:08.159Z,10.00
2019-04-05T01:05:40.984Z,10.00
2019-04-05T01:06:13.550Z,10.00
2019-04-05T01:06:46.107Z,10.00
2019-04-05T01:07:18.659Z,10.00
2019-04-05T01:07:51.198Z,10.00
2019-04-05T01:08:23.748Z,10.00
2019-04-05T01:08:56.594Z,10.00
2019-04-05T01:09:29.475Z,10.00
2019-04-05T01:10:02.135Z,10.00
2019-04-05T01:10:34.689Z,10.00
2019-04-05T01:11:07.238Z,10.00
2019-04-05T01:11:39.935Z,10.00
2019-04-05T01:12:12.791Z,10.00
2019-04-05T01:12:45.916Z,10.00
2019-04-05T01:13:18.470Z,9.90
2019-04-05T01:13:52.016Z,9.90
2019-04-05T01:14:26.055Z,9.90
2019-04-05T01:14:59.332Z,9.90
2019-04-05T01:15:40.697Z,9.90
2019-04-05T01:16:06.555Z,9.90
2019-04-05T01:16:39.294Z,9.90
2019-04-05T01:17:24.185Z,9.80
2019-04-05T01:17:46.814Z,9.90
2019-04-05T01:18:19.832Z,9.90
2019-04-05T01:18:52.361Z,9.90
2019-04-05T01:19:29.410Z,9.90
2019-04-05T01:20:03.498Z,9.80
2019-04-05T01:20:38.753Z,9.80
2019-04-05T01:21:13.693Z,9.80
2019-04-05T01:21:47.946Z,9.80
2019-04-05T01:22:25.310Z,9.80
2019-04-05T01:22:59.068Z,9.80
2019-04-05T01:23:32.524Z,9.80
2019-04-05T01:24:06.278Z,9.80
2019-04-05T01:24:39.158Z,9.80
2019-04-05T01:25:12.473Z,9.80
2019-04-05T01:25:45.583Z,9.80
2019-04-05T01:26:19.053Z,9.80
2019-04-05T01:26:54.347Z,9.80
2019-04-05T01:27:29.100Z,9.80
2019-04-05T01:28:02.431Z,9.80
2019-04-05T01:28:35.101Z,9.80
2019-04-05T01:29:07.655Z,9.80
2019-04-05T01:29:41.089Z,9.80
2019-04-05T01:30:15.529Z,9.80
2019-04-05T01:30:48.080Z,9.80
2019-04-05T01:31:20.638Z,9.80
2019-04-05T01:31:53.914Z,9.80
2019-04-05T01:32:26.748Z,9.70
2019-04-05T01:32:59.390Z,9.80
2019-04-05T01:33:32.219Z,9.70
2019-04-05T01:34:05.708Z,9.70
2019-04-05T01:34:38.814Z,9.70
2019-04-05T01:35:11.463Z,9.70
2019-04-05T01:35:44.495Z,9.70
2019-04-05T01:36:17.388Z,9.70
2019-04-05T01:36:49.954Z,9.70
2019-04-05T01:37:22.700Z,9.70
2019-04-05T01:37:56.209Z,9.60
2019-04-05T01:38:29.635Z,9.60
2019-04-05T01:39:02.661Z,9.60
2019-04-05T01:39:35.214Z,9.60
2019-04-05T01:40:08.289Z,9.60
2019-04-05T01:40:42.874Z,9.60
2019-04-05T01:41:15.661Z,9.60
2019-04-05T01:41:48.501Z,9.60
2019-04-05T01:42:22.051Z,9.60
2019-04-05T01:42:55.015Z,9.60
2019-04-05T01:43:28.083Z,9.60
2019-04-05T01:44:00.626Z,9.60
2019-04-05T01:44:34.852Z,9.60
2019-04-05T01:45:07.537Z,9.60
2019-04-05T01:45:52.627Z,9.60
2019-04-05T01:46:15.707Z,9.60
2019-04-05T01:46:48.294Z,9.60
2019-04-05T01:47:21.150Z,9.60
2019-04-05T01:47:53.698Z,9.60
2019-04-05T01:48:26.243Z,9.60
2019-04-05T01:48:58.798Z,9.60
2019-04-05T01:49:31.781Z,9.60
2019-04-05T01:50:05.603Z,9.60
2019-04-05T01:50:38.171Z,9.50
2019-04-05T01:51:10.731Z,9.50
2019-04-05T01:51:43.289Z,9.60
2019-04-05T01:52:16.036Z,9.50
2019-04-05T01:52:48.771Z,9.50
2019-04-05T01:53:21.537Z,9.50
2019-04-05T01:53:54.102Z,9.50
2019-04-05T01:54:29.034Z,9.50
2019-04-05T01:55:01.330Z,9.50
2019-04-05T01:55:34.002Z,9.50
2019-04-05T01:56:06.907Z,9.50
2019-04-05T01:56:39.455Z,9.50
2019-04-05T01:57:12.021Z,9.50
2019-04-05T01:57:44.603Z,9.50
2019-04-05T01:58:17.145Z,9.50
2019-04-05T01:58:50.073Z,9.50
2019-04-05T01:59:23.251Z,9.50
2019-04-05T01:59:55.811Z,9.50
2019-04-05T02:00:28.379Z,9.50
2019-04-05T02:01:00.938Z,9.50
2019-04-05T02:01:33.831Z,9.50
2019-04-05T02:02:06.703Z,9.40
2019-04-05T02:02:40.181Z,9.50
2019-04-05T02:03:13.049Z,9.40
2019-04-05T02:03:45.598Z,9.40
2019-04-05T02:04:19.003Z,9.50
2019-04-05T02:04:52.832Z,9.40
2019-04-05T02:05:25.618Z,9.50
2019-04-05T02:05:58.643Z,9.40
2019-04-05T02:06:32.075Z,9.40
2019-04-05T02:07:04.610Z,9.50
2019-04-05T02:07:37.433Z,9.50
2019-04-05T02:08:09.979Z,9.50
2019-04-05T02:08:42.550Z,9.40
2019-04-05T02:09:15.209Z,9.40
2019-04-05T02:09:48.367Z,9.40
2019-04-05T02:10:20.931Z,9.40
2019-04-05T02:10:54.402Z,9.40
2019-04-05T02:11:27.333Z,9.40
2019-04-05T02:11:59.881Z,9.40
2019-04-05T02:12:32.438Z,9.30
2019-04-05T02:13:05.444Z,9.30
2019-04-05T02:13:38.001Z,9.30
2019-04-05T02:14:10.778Z,9.30
2019-04-05T02:14:43.625Z,9.30
2019-04-05T02:15:26.711Z,9.30
2019-04-05T02:16:06.100Z,9.30
2019-04-05T02:16:34.126Z,9.30
2019-04-05T02:17:07.065Z,9.30
2019-04-05T02:17:39.917Z,9.20
2019-04-05T02:18:12.476Z,9.30
2019-04-05T02:18:45.023Z,9.20
2019-04-05T02:19:17.588Z,9.20
2019-04-05T02:19:50.126Z,9.20
2019-04-05T02:20:23.192Z,9.20
2019-04-05T02:20:56.213Z,9.20
2019-04-05T02:21:29.090Z,9.20
2019-04-05T02:22:01.665Z,9.20
2019-04-05T02:22:34.215Z,9.10
2019-04-05T02:23:07.078Z,9.10
2019-04-05T02:23:39.637Z,9.10
2019-04-05T02:24:12.551Z,9.10
2019-04-05T02:24:45.830Z,9.10
2019-04-05T02:25:18.826Z,9.10
2019-04-05T02:25:52.231Z,9.00
2019-04-05T02:26:24.789Z,9.00
2019-04-05T02:26:57.653Z,9.00
2019-04-05T02:27:30.481Z,9.00
2019-04-05T02:28:03.454Z,8.90
2019-04-05T02:28:36.094Z,9.00
2019-04-05T02:29:08.646Z,8.90
2019-04-05T02:29:41.181Z,8.90
2019-04-05T02:30:13.983Z,8.90
2019-04-05T02:30:46.971Z,8.90
2019-04-05T02:31:19.624Z,8.90
2019-04-05T02:31:52.209Z,8.90
2019-04-05T02:32:24.850Z,8.90
2019-04-05T02:32:57.736Z,8.90
2019-04-05T02:33:30.315Z,8.90
2019-04-05T02:34:02.893Z,8.90
2019-04-05T02:34:35.877Z,8.90
2019-04-05T02:35:08.956Z,8.80
2019-04-05T02:35:41.530Z,8.90
2019-04-05T02:36:14.088Z,8.90
2019-04-05T02:36:46.652Z,8.90
2019-04-05T02:37:19.195Z,8.80
2019-04-05T02:37:52.180Z,8.90
2019-04-05T02:38:24.731Z,8.90
2019-04-05T02:38:57.623Z,8.80
2019-04-05T02:39:30.162Z,8.90
2019-04-05T02:40:02.851Z,8.80
2019-04-05T02:40:38.003Z,8.90
2019-04-05T02:41:11.700Z,8.80
2019-04-05T02:41:45.352Z,8.90
2019-04-05T02:42:19.802Z,8.90
2019-04-05T02:42:54.355Z,8.90
2019-04-05T02:43:29.046Z,8.90
2019-04-05T02:44:02.396Z,8.90
2019-04-05T02:44:36.550Z,8.90
2019-04-05T02:45:11.322Z,8.90
2019-04-05T02:45:46.276Z,8.90
2019-04-05T02:46:24.074Z,8.90
2019-04-05T02:46:54.504Z,8.90
2019-04-05T02:47:28.023Z,8.90
2019-04-05T02:48:04.218Z,8.90
2019-04-05T02:48:40.391Z,8.90
2019-04-05T02:49:14.112Z,8.90
2019-04-05T02:49:46.974Z,8.90
2019-04-05T02:50:22.773Z,8.90
2019-04-05T02:50:58.939Z,8.90
2019-04-05T02:51:33.043Z,8.90
2019-04-05T02:52:06.335Z,9.00
2019-04-05T02:52:40.712Z,9.00
2019-04-05T02:53:16.371Z,9.00
2019-04-05T02:53:51.247Z,8.90
2019-04-05T02:54:25.432Z,8.90
2019-04-05T02:54:58.791Z,8.90
2019-04-05T02:55:31.786Z,8.90
2019-04-05T02:56:05.972Z,8.90
2019-04-05T02:56:39.625Z,8.90
2019-04-05T02:57:12.686Z,8.90
2019-04-05T02:57:46.544Z,8.90
2019-04-05T02:58:20.444Z,8.90
2019-04-05T02:58:53.383Z,9.00
2019-04-05T02:59:26.440Z,8.90
2019-04-05T02:59:59.271Z,8.90
2019-04-05T03:00:33.247Z,8.90
2019-04-05T03:01:06.206Z,8.90
2019-04-05T03:01:38.997Z,8.90
2019-04-05T03:02:11.791Z,8.90
2019-04-05T03:02:44.339Z,8.90
2019-04-05T03:03:17.101Z,8.90
2019-04-05T03:03:49.992Z,8.90
2019-04-05T03:04:22.677Z,8.90
2019-04-05T03:04:55.375Z,8.90
2019-04-05T03:05:28.033Z,8.90
2019-04-05T03:06:01.192Z,8.90
2019-04-05T03:06:33.950Z,8.90
2019-04-05T03:07:06.591Z,8.90
2019-04-05T03:07:39.604Z,8.90
2019-04-05T03:08:12.251Z,8.80
2019-04-05T03:08:45.035Z,8.80
2019-04-05T03:09:18.086Z,8.80
2019-04-05T03:09:50.640Z,8.80
2019-04-05T03:11:00.525Z,8.80
2019-04-05T03:11:34.399Z,8.80
2019-04-05T03:12:07.250Z,8.80
2019-04-05T03:12:40.180Z,8.80
2019-04-05T03:13:13.062Z,8.80
2019-04-05T03:13:50.861Z,8.80
2019-04-05T03:14:24.206Z,8.80
2019-04-05T03:14:58.728Z,8.80
2019-04-05T03:15:31.392Z,8.80
2019-04-05T03:16:08.669Z,8.80
2019-04-05T03:16:44.837Z,8.80
2019-04-05T03:17:17.799Z,8.80
2019-04-05T03:17:50.378Z,8.80
2019-04-05T03:18:26.141Z,8.80
2019-04-05T03:19:03.544Z,8.80
2019-04-05T03:19:37.921Z,8.80
2019-04-05T03:20:10.760Z,8.80
2019-04-05T03:20:43.530Z,8.80
2019-04-05T03:21:19.083Z,8.80
2019-04-05T03:21:55.934Z,8.70
2019-04-05T03:22:29.407Z,8.80
2019-04-05T03:23:01.954Z,8.80
2019-04-05T03:23:37.971Z,8.80
2019-04-05T03:24:15.443Z,8.70
2019-04-05T03:24:48.922Z,8.70
2019-04-05T03:25:21.581Z,8.70
2019-04-05T03:25:55.464Z,8.70
2019-04-05T03:26:31.985Z,8.70
2019-04-05T03:27:11.585Z,8.70
2019-04-05T03:27:44.259Z,8.70
2019-04-05T03:28:18.231Z,8.70
2019-04-05T03:28:54.427Z,8.70
2019-04-05T03:29:27.177Z,8.70
2019-04-05T03:30:00.683Z,8.70
2019-04-05T03:30:33.781Z,8.70
2019-04-05T03:31:06.635Z,8.60
2019-04-05T03:31:39.286Z,8.60
2019-04-05T03:32:11.931Z,8.60
2019-04-05T03:32:44.595Z,8.60
2019-04-05T03:33:17.162Z,8.60
2019-04-05T03:33:49.903Z,8.60
2019-04-05T03:34:23.072Z,8.60
2019-04-05T03:34:55.932Z,8.60
2019-04-05T03:35:28.800Z,8.60
2019-04-05T03:36:02.187Z,8.50
2019-04-05T03:36:35.832Z,8.50
2019-04-05T03:37:08.687Z,8.50
2019-04-05T03:37:41.247Z,8.50
2019-04-05T03:38:15.693Z,8.40
2019-04-05T03:38:48.887Z,8.40
2019-04-05T03:39:22.838Z,8.40
2019-04-05T03:39:56.047Z,8.40
2019-04-05T03:40:28.799Z,8.40
2019-04-05T03:41:01.361Z,8.40
2019-04-05T03:41:34.826Z,8.40
2019-04-05T03:42:08.980Z,8.40
2019-04-05T03:42:42.049Z,8.40
2019-04-05T03:43:15.282Z,8.40
2019-04-05T03:43:49.126Z,8.40
2019-04-05T03:44:23.066Z,8.40
2019-04-05T03:44:55.868Z,8.30
2019-04-05T03:45:28.475Z,8.30
2019-04-05T03:46:01.737Z,8.30
2019-04-05T03:46:34.506Z,8.30
2019-04-05T03:47:07.440Z,8.30
2019-04-05T03:47:39.979Z,8.30
2019-04-05T03:48:12.736Z,8.30
2019-04-05T03:48:47.547Z,8.30
2019-04-05T03:49:20.808Z,8.30
2019-04-05T03:49:53.661Z,8.20
2019-04-05T03:50:26.428Z,8.20
2019-04-05T03:50:59.139Z,8.20
2019-04-05T03:51:32.654Z,8.20
2019-04-05T03:52:05.836Z,8.20
2019-04-05T03:52:38.753Z,8.20
2019-04-05T03:53:11.759Z,8.20
2019-04-05T03:53:44.616Z,8.20
2019-04-05T03:54:17.478Z,8.20
2019-04-05T03:54:50.036Z,8.20
2019-04-05T03:55:22.592Z,8.20
2019-04-05T03:55:55.376Z,8.20
2019-04-05T03:56:28.544Z,8.20
2019-04-05T03:57:01.104Z,8.20
2019-04-05T03:57:33.653Z,8.20
2019-04-05T03:58:06.617Z,8.20
2019-04-05T03:58:39.699Z,8.20
2019-04-05T03:59:13.303Z,8.20
2019-04-05T03:59:45.963Z,8.30
2019-04-05T04:00:18.527Z,8.20
2019-04-05T04:00:51.576Z,8.30
2019-04-05T04:01:24.330Z,8.30
2019-04-05T04:01:56.898Z,8.30
2019-04-05T04:02:29.957Z,8.30
2019-04-05T04:03:02.713Z,8.30
2019-04-05T04:03:35.652Z,8.30
2019-04-05T04:04:08.307Z,8.30
2019-04-05T04:04:41.054Z,8.30
2019-04-05T04:05:13.599Z,8.30
2019-04-05T04:05:46.379Z,8.30
2019-04-05T04:06:19.283Z,8.30
2019-04-05T04:06:52.035Z,8.30
2019-04-05T04:07:24.920Z,8.30
2019-04-05T04:07:57.579Z,8.30
2019-04-05T04:08:30.306Z,8.20
2019-04-05T04:09:04.055Z,8.20
2019-04-05T04:09:36.800Z,8.20
2019-04-05T04:10:14.859Z,8.20
2019-04-05T04:10:49.517Z,8.30
2019-04-05T04:11:22.074Z,8.30
2019-04-05T04:11:55.260Z,8.30
2019-04-05T04:12:28.039Z,8.30
2019-04-05T04:13:00.599Z,8.30
2019-04-05T04:13:34.076Z,8.20
2019-04-05T04:14:07.144Z,8.20
2019-04-05T04:14:39.895Z,8.20
2019-04-05T04:15:13.968Z,8.30
2019-04-05T04:15:47.358Z,8.30
2019-04-05T04:16:20.924Z,8.20
2019-04-05T04:17:10.965Z,8.20
2019-04-05T04:17:29.651Z,8.20
2019-04-05T04:18:04.125Z,8.20
2019-04-05T04:18:37.085Z,8.20
2019-04-05T04:19:10.107Z,8.20
2019-04-05T04:19:44.145Z,8.20
2019-04-05T04:20:47.162Z,8.10
2019-04-05T04:21:57.501Z,8.10
2019-04-05T04:22:30.661Z,8.20
2019-04-05T04:23:04.558Z,8.20
2019-04-05T04:23:39.631Z,8.20
2019-04-05T04:24:12.395Z,8.20
2019-04-05T04:24:45.466Z,8.20
2019-04-05T04:25:25.065Z,8.10
2019-04-05T04:26:04.773Z,8.10
2019-04-05T04:26:50.314Z,8.10
2019-04-05T04:27:40.438Z,8.10
2019-04-05T04:28:23.391Z,8.10
2019-04-05T04:29:07.452Z,8.10
2019-04-05T04:29:50.437Z,8.10
2019-04-05T04:30:42.077Z,8.10
2019-04-05T04:31:32.170Z,8.10
2019-04-05T04:32:14.359Z,8.10
2019-04-05T04:33:06.529Z,8.00
2019-04-05T04:33:44.314Z,8.00
2019-04-05T04:34:26.350Z,8.00
2019-04-05T04:35:12.768Z,8.10
2019-04-05T04:36:05.378Z,8.00
2019-04-05T04:36:46.760Z,8.10
2019-04-05T04:37:37.173Z,8.20
2019-04-05T04:38:28.630Z,8.10
2019-04-05T04:39:27.558Z,8.20
2019-04-05T04:40:08.481Z,8.20
2019-04-05T04:40:55.111Z,8.20
2019-04-05T04:41:35.001Z,8.10
2019-04-05T04:42:12.745Z,8.10
2019-04-05T04:42:51.951Z,8.00
2019-04-05T04:43:35.061Z,8.00
2019-04-05T04:44:11.237Z,8.10
2019-04-05T04:44:55.067Z,8.10
2019-04-05T04:45:34.409Z,8.10
2019-04-05T04:46:18.771Z,8.00
2019-04-05T04:46:56.986Z,8.00
2019-04-05T04:47:38.210Z,8.00
2019-04-05T04:48:22.363Z,8.10
2019-04-05T04:49:03.241Z,8.10
2019-04-05T04:49:39.144Z,8.10
2019-04-05T04:50:16.910Z,8.10
2019-04-05T04:50:58.456Z,8.20
2019-04-05T04:51:35.011Z,8.20
2019-04-05T04:52:16.338Z,8.20
2019-04-05T04:52:53.195Z,8.20
2019-04-05T04:53:30.403Z,8.20
2019-04-05T04:54:15.976Z,8.30
2019-04-05T04:54:59.300Z,8.30
2019-04-05T04:55:43.895Z,8.30
2019-04-05T04:56:19.426Z,8.30
2019-04-05T04:56:55.219Z,8.30
2019-04-05T04:57:36.329Z,8.30
2019-04-05T04:58:18.417Z,8.30
2019-04-05T04:58:54.860Z,8.30
2019-04-05T04:59:32.253Z,8.30
2019-04-05T05:00:19.815Z,8.30
2019-04-05T05:01:05.487Z,8.40
2019-04-05T05:02:05.013Z,8.40
2019-04-05T05:02:47.216Z,8.40
2019-04-05T05:03:35.271Z,8.40
2019-04-05T05:04:22.754Z,8.40
2019-04-05T05:05:02.085Z,8.40
2019-04-05T05:05:41.558Z,8.40
2019-04-05T05:06:21.539Z,8.40
2019-04-05T05:07:02.809Z,8.40
2019-04-05T05:07:41.311Z,8.40
2019-04-05T05:08:22.300Z,8.40
2019-04-05T05:08:59.747Z,8.40
2019-04-05T05:09:40.538Z,8.40
2019-04-05T05:10:17.584Z,8.40
2019-04-05T05:11:13.639Z,8.40
2019-04-05T05:11:37.809Z,8.40
2019-04-05T05:12:14.153Z,8.40
2019-04-05T05:12:52.971Z,8.40
2019-04-05T05:13:29.988Z,8.40
2019-04-05T05:14:10.634Z,8.40
2019-04-05T05:14:48.791Z,8.40
2019-04-05T05:15:27.309Z,8.40
2019-04-05T05:16:04.940Z,8.40
2019-04-05T05:16:41.473Z,8.50
2019-04-05T05:17:23.001Z,8.50
2019-04-05T05:18:01.613Z,8.50
2019-04-05T05:18:40.725Z,8.40
2019-04-05T05:19:18.202Z,8.50
2019-04-05T05:19:55.071Z,8.50
2019-04-05T05:20:37.594Z,8.50
2019-04-05T05:21:18.463Z,8.50
2019-04-05T05:22:02.668Z,8.50
2019-04-05T05:22:43.249Z,8.50
2019-04-05T05:23:20.830Z,8.50
2019-04-05T05:24:01.344Z,8.60
2019-04-05T05:24:40.561Z,8.60
2019-04-05T05:25:25.371Z,8.60
2019-04-05T05:26:03.465Z,8.70
2019-04-05T05:26:46.429Z,8.80
2019-04-05T05:27:33.142Z,8.90
2019-04-05T05:28:16.374Z,9.20
2019-04-05T05:28:52.831Z,9.50
2019-04-05T05:29:37.213Z,9.80
2019-04-05T05:30:16.422Z,10.10
2019-04-05T05:31:13.306Z,10.40
2019-04-05T05:32:05.526Z,10.70
2019-04-05T05:32:47.509Z,11.10
2019-04-05T05:33:30.213Z,11.40
2019-04-05T05:34:15.306Z,11.70
2019-04-05T05:35:01.182Z,11.80
2019-04-05T05:35:33.007Z,12.00
2019-04-05T05:36:25.264Z,12.20
2019-04-05T05:37:05.893Z,12.40
2019-04-05T05:37:43.514Z,12.60
2019-04-05T05:38:19.900Z,12.60
2019-04-05T05:38:59.120Z,12.80
2019-04-05T05:39:41.685Z,13.00
2019-04-05T05:40:33.720Z,13.10
2019-04-05T05:41:04.064Z,13.20
2019-04-05T05:41:44.257Z,13.40
2019-04-05T05:42:31.908Z,13.40
2019-04-05T05:43:09.925Z,13.60
2019-04-05T05:43:46.730Z,13.80
2019-04-05T05:44:33.298Z,13.90
2019-04-05T05:45:12.746Z,14.00
2019-04-05T05:45:48.701Z,14.10
2019-04-05T05:46:24.476Z,14.30
2019-04-05T05:47:00.811Z,14.40
2019-04-05T05:47:50.654Z,14.60
2019-04-05T05:48:17.783Z,14.70
2019-04-05T05:48:57.752Z,14.80
2019-04-05T05:49:50.083Z,14.90
2019-04-05T05:50:28.870Z,15.00
2019-04-05T05:51:10.358Z,15.20
2019-04-05T05:51:52.175Z,15.20
2019-04-05T05:52:30.447Z,15.20
2019-04-05T05:53:11.093Z,15.30
2019-04-05T05:53:56.831Z,15.30
2019-04-05T05:54:39.882Z,15.40
2019-04-05T05:55:35.270Z,15.50
2019-04-05T05:56:18.165Z,15.50
2019-04-05T05:57:00.227Z,15.50
2019-04-05T05:57:47.247Z,15.50
2019-04-05T05:58:25.851Z,15.50
2019-04-05T05:59:04.147Z,15.40
2019-04-05T05:59:45.511Z,15.40
2019-04-05T06:00:31.055Z,15.40
2019-04-05T06:01:09.538Z,15.40
2019-04-05T06:01:50.878Z,15.30
2019-04-05T06:02:29.895Z,15.40
2019-04-05T06:03:11.175Z,15.50
2019-04-05T06:04:09.041Z,15.50
2019-04-05T06:04:55.497Z,15.40
2019-04-05T06:05:33.403Z,15.40
2019-04-05T06:06:09.851Z,15.50
2019-04-05T06:07:08.607Z,15.70
2019-04-05T06:07:47.748Z,15.90
2019-04-05T06:08:32.868Z,16.20
2019-04-05T06:09:10.132Z,16.40
2019-04-05T06:09:48.365Z,16.50
2019-04-05T06:10:30.367Z,16.70
2019-04-05T06:11:15.203Z,16.90
2019-04-05T06:12:00.152Z,16.80
2019-04-05T06:12:37.477Z,16.70
2019-04-05T06:13:18.258Z,16.70
2019-04-05T06:13:58.092Z,16.50
2019-04-05T06:14:34.345Z,16.30
2019-04-05T06:15:10.013Z,16.10
2019-04-05T06:15:48.857Z,16.10
2019-04-05T06:16:28.228Z,16.10
2019-04-05T06:17:14.174Z,16.20
2019-04-05T06:17:58.943Z,16.30
2019-04-05T06:18:27.633Z,16.20
2019-04-05T06:19:07.890Z,16.10
2019-04-05T06:19:41.684Z,15.90
2019-04-05T06:20:17.712Z,15.80
2019-04-05T06:20:53.942Z,15.60
2019-04-05T06:21:32.786Z,15.50
2019-04-05T06:22:13.748Z,15.40
2019-04-05T06:22:54.398Z,15.20
2019-04-05T06:23:41.591Z,15.00
2019-04-05T06:24:20.399Z,15.00
2019-04-05T06:25:11.036Z,14.80
2019-04-05T06:25:46.638Z,14.70
2019-04-05T06:26:24.410Z,14.60
2019-04-05T06:27:09.052Z,14.50
2019-04-05T06:27:48.651Z,14.40
2019-04-05T06:28:33.457Z,14.30
2019-04-05T06:29:13.477Z,14.20
2019-04-05T06:29:59.243Z,14.10
2019-04-05T06:30:41.285Z,14.20
2019-04-05T06:31:32.715Z,14.10
2019-04-05T06:32:12.876Z,14.00
2019-04-05T06:32:47.896Z,14.00
2019-04-05T06:33:31.674Z,14.10
2019-04-05T06:34:12.106Z,14.10
2019-04-05T06:34:46.766Z,14.10
2019-04-05T06:35:24.384Z,13.90
2019-04-05T06:36:03.376Z,13.90
2019-04-05T06:36:39.524Z,13.90
2019-04-05T06:37:19.987Z,14.00
2019-04-05T06:38:01.460Z,13.90
2019-04-05T06:38:43.427Z,13.90
2019-04-05T06:39:20.625Z,13.90
2019-04-05T06:39:58.203Z,13.90
2019-04-05T06:40:44.662Z,13.90
2019-04-05T06:41:20.611Z,13.90
2019-04-05T06:42:07.637Z,13.90
2019-04-05T06:42:50.879Z,13.90
2019-04-05T06:43:31.408Z,14.00
2019-04-05T06:44:19.514Z,13.80
2019-04-05T06:44:56.972Z,13.70
2019-04-05T06:45:47.287Z,13.50
2019-04-05T06:46:19.146Z,13.40
2019-04-05T06:47:06.750Z,13.30
2019-04-05T06:47:44.816Z,13.30
2019-04-05T06:48:23.319Z,13.30
2019-04-05T06:49:03.754Z,13.30
2019-04-05T06:49:47.109Z,13.40
2019-04-05T06:50:28.068Z,13.50
2019-04-05T06:51:14.865Z,13.50
2019-04-05T06:51:53.985Z,13.50
2019-04-05T06:52:35.733Z,13.60
2019-04-05T06:53:20.687Z,13.60
2019-04-05T06:54:03.240Z,13.70
2019-04-05T06:55:36.675Z,13.60
2019-04-05T06:56:38.014Z,13.70
2019-04-05T06:57:28.693Z,13.70
2019-04-05T06:58:11.303Z,13.80
2019-04-05T06:58:55.434Z,13.70
2019-04-05T06:59:34.654Z,13.70
2019-04-05T07:00:12.622Z,13.70
2019-04-05T07:01:14.416Z,13.60
2019-04-05T07:01:59.854Z,13.60
2019-04-05T07:02:37.674Z,13.50
2019-04-05T07:03:26.315Z,13.50
2019-04-05T07:04:06.321Z,13.50
2019-04-05T07:04:59.158Z,13.50
2019-04-05T07:05:42.978Z,13.60
2019-04-05T07:06:26.192Z,13.60
2019-04-05T07:07:05.144Z,13.70
2019-04-05T07:07:47.736Z,13.80
2019-04-05T07:08:27.753Z,14.00
2019-04-05T07:09:07.582Z,14.00
2019-04-05T07:09:44.993Z,14.10
2019-04-05T07:10:30.512Z,14.10
2019-04-05T07:11:10.600Z,14.20
2019-04-05T07:11:50.906Z,14.20
2019-04-05T07:12:30.471Z,14.30
2019-04-05T07:13:10.866Z,14.40
2019-04-05T07:13:51.024Z,14.50
2019-04-05T07:14:27.070Z,14.60
2019-04-05T07:15:07.825Z,14.70
2019-04-05T07:15:47.967Z,14.70
2019-04-05T07:16:30.766Z,14.80
2019-04-05T07:17:08.899Z,14.80
2019-04-05T07:17:44.701Z,14.90
2019-04-05T07:18:34.137Z,14.90
2019-04-05T07:19:14.489Z,14.80
2019-04-05T07:19:52.121Z,14.80
2019-04-05T07:20:45.848Z,14.70
2019-04-05T07:21:53.699Z,14.70
2019-04-05T07:22:39.324Z,14.60
2019-04-05T07:23:10.772Z,14.60
2019-04-05T07:23:43.595Z,14.60
2019-04-05T07:24:16.532Z,14.60
2019-04-05T07:24:49.621Z,14.60
2019-04-05T07:25:22.580Z,14.60
2019-04-05T07:25:55.133Z,14.60
2019-04-05T07:26:28.058Z,14.60
2019-04-05T07:27:00.598Z,14.50
2019-04-05T07:27:33.446Z,14.50
2019-04-05T07:28:06.318Z,14.50
2019-04-05T07:28:39.036Z,14.60
2019-04-05T07:29:11.559Z,14.60
2019-04-05T07:29:44.140Z,14.60
2019-04-05T07:30:17.109Z,14.70
2019-04-05T07:30:49.946Z,14.70
2019-04-05T07:31:22.495Z,14.80
2019-04-05T07:31:55.044Z,14.80
2019-04-05T07:32:29.847Z,14.90
2019-04-05T07:33:02.988Z,15.00
2019-04-05T07:33:35.571Z,15.10
2019-04-05T07:34:08.432Z,15.10
2019-04-05T07:34:40.970Z,15.20
2019-04-05T07:35:13.623Z,15.20
2019-04-05T07:35:47.104Z,15.30
2019-04-05T07:36:19.664Z,15.40
2019-04-05T07:36:52.233Z,15.50
2019-04-05T07:37:24.786Z,15.50
2019-04-05T07:37:57.332Z,15.60
2019-04-05T07:38:29.878Z,15.60
2019-04-05T07:39:03.505Z,15.70
2019-04-05T07:39:36.042Z,15.70
2019-04-05T07:40:09.471Z,15.80
2019-04-05T07:40:42.424Z,15.80
2019-04-05T07:41:14.990Z,15.90
2019-04-05T07:41:47.542Z,15.90
2019-04-05T07:42:20.197Z,15.90
2019-04-05T07:42:53.166Z,15.90
2019-04-05T07:43:26.075Z,16.00
2019-04-05T07:43:58.637Z,16.00
2019-04-05T07:44:31.213Z,16.00
2019-04-05T07:45:05.022Z,16.00
2019-04-05T07:45:37.584Z,16.00
2019-04-05T07:46:10.141Z,16.00
2019-04-05T07:46:42.696Z,16.00
2019-04-05T07:47:15.565Z,16.00
2019-04-05T07:47:48.107Z,16.00
2019-04-05T07:48:20.680Z,16.10
2019-04-05T07:48:53.236Z,16.10
2019-04-05T07:49:25.783Z,16.10
2019-04-05T07:49:58.682Z,16.10
2019-04-05T07:50:32.063Z,16.20
2019-04-05T07:51:04.611Z,16.20
2019-04-05T07:51:37.165Z,16.20
2019-04-05T07:52:12.827Z,16.20
2019-04-05T07:52:44.417Z,16.20
2019-04-05T07:53:17.016Z,16.20
2019-04-05T07:53:49.566Z,16.20
2019-04-05T07:54:22.119Z,16.30
2019-04-05T07:54:55.034Z,16.30